createdAt,value
2019-03-10T00:02:50.139Z,99529.19
2019-03-10T00:05:55.290Z,99526.18
2019-03-10T00:09:00.446Z,99529.27
2019-03-10T00:12:07.171Z,99525.45
2019-03-10T00:15:12.594Z,99524.00
2019-03-10T00:18:18.012Z,99529.04
2019-03-10T00:21:23.290Z,99517.46
2019-03-10T00:24:28.372Z,99513.87
2019-03-10T00:27:33.825Z,99517.51
2019-03-10T00:30:39.076Z,99504.48
2019-03-10T00:33:44.308Z,99515.64
2019-03-10T00:36:49.394Z,99514.81
2019-03-10T00:40:31.209Z,99506.11
2019-03-10T00:44:12.240Z,99500.68
2019-03-10T00:47:46.137Z,99487.01
2019-03-10T00:51:29.974Z,99483.49
2019-03-10T00:54:35.191Z,99481.13
2019-03-10T00:57:40.394Z,99493.87
2019-03-10T01:00:45.580Z,99483.70
2019-03-10T01:03:50.726Z,99484.47
2019-03-10T01:06:56.786Z,99487.02
2019-03-10T01:10:01.979Z,99467.47
2019-03-10T01:13:09.729Z,99460.88
2019-03-10T01:16:15.037Z,99461.95
2019-03-10T01:19:20.680Z,99458.83
2019-03-10T01:22:26.209Z,99443.56
2019-03-10T01:25:31.358Z,99441.05
2019-03-10T01:28:36.503Z,99432.39
2019-03-10T01:32:31.001Z,99437.19
2019-03-10T01:35:39.031Z,99438.61
2019-03-10T01:38:44.761Z,99433.64
2019-03-10T01:41:49.850Z,99432.64
2019-03-10T01:44:54.963Z,99411.86
2019-03-10T01:48:00.090Z,99401.55
2019-03-10T01:51:05.259Z,99399.02
2019-03-10T01:54:10.530Z,99409.53
2019-03-10T01:57:16.624Z,99394.46
2019-03-10T02:00:21.813Z,99400.52
2019-03-10T02:03:27.026Z,99405.70
2019-03-10T02:06:33.079Z,99398.05
2019-03-10T02:09:38.258Z,99398.48
2019-03-10T02:12:43.387Z,99389.19
2019-03-10T02:15:48.557Z,99383.53
2019-03-10T02:18:53.650Z,99379.94
2019-03-10T02:21:58.769Z,99379.36
2019-03-10T02:25:04.190Z,99367.16
2019-03-10T02:28:09.336Z,99360.44
2019-03-10T02:31:14.478Z,99351.72
2019-03-10T02:34:19.594Z,99344.68
2019-03-10T02:37:24.735Z,99343.23
2019-03-10T02:40:29.882Z,99339.66
2019-03-10T02:43:35.024Z,99328.17
2019-03-10T02:46:40.198Z,99331.98
2019-03-10T02:49:46.375Z,99314.98
2019-03-10T02:52:51.565Z,99312.41
2019-03-10T02:55:56.673Z,99285.59
2019-03-10T02:59:01.844Z,99282.50
2019-03-10T03:02:06.944Z,99273.12
2019-03-10T03:05:12.203Z,99267.25
2019-03-10T03:08:17.486Z,99259.83
2019-03-10T03:11:22.579Z,99252.42
2019-03-10T03:14:28.972Z,99248.17
2019-03-10T03:17:34.292Z,99241.69
2019-03-10T03:20:39.531Z,99228.17
2019-03-10T03:23:44.647Z,99220.95
2019-03-10T03:26:49.754Z,99226.74
2019-03-10T03:29:54.903Z,99225.49
2019-03-10T03:33:00.071Z,99217.14
2019-03-10T03:36:21.466Z,99211.05
2019-03-10T03:39:32.800Z,99205.37
2019-03-10T03:42:37.936Z,99193.94
2019-03-10T03:45:43.074Z,99178.13
2019-03-10T03:48:48.213Z,99181.75
2019-03-10T03:51:53.330Z,99165.49
2019-03-10T03:54:58.472Z,99172.69
2019-03-10T03:58:03.570Z,99161.25
2019-03-10T04:01:30.362Z,99158.56
2019-03-10T04:04:35.537Z,99157.84
2019-03-10T04:07:40.751Z,99146.73
2019-03-10T04:10:45.936Z,99142.80
2019-03-10T04:13:51.016Z,99133.64
2019-03-10T04:16:56.147Z,99135.28
2019-03-10T04:20:01.550Z,99130.28
2019-03-10T04:23:08.128Z,99107.75
2019-03-10T04:26:13.198Z,99097.67
2019-03-10T04:29:18.324Z,99093.16
2019-03-10T04:32:23.439Z,99084.92
2019-03-10T04:35:28.578Z,99077.47
2019-03-10T04:38:33.733Z,99060.37
2019-03-10T04:41:38.859Z,99054.62
2019-03-10T04:44:44.050Z,99051.22
2019-03-10T04:47:49.270Z,99048.67
2019-03-10T04:50:54.431Z,99027.81
2019-03-10T04:53:59.577Z,99013.16
2019-03-10T04:57:10.558Z,99001.33
2019-03-10T05:00:15.699Z,98998.75
2019-03-10T05:03:20.889Z,98987.68
2019-03-10T05:06:26.114Z,98986.59
2019-03-10T05:09:31.199Z,98983.72
2019-03-10T05:12:36.330Z,98974.09
2019-03-10T05:15:41.430Z,98968.06
2019-03-10T05:18:46.566Z,98958.59
2019-03-10T05:21:51.669Z,98950.32
2019-03-10T05:24:56.815Z,98945.90
2019-03-10T05:28:01.899Z,98932.17
2019-03-10T05:31:07.060Z,98940.02
2019-03-10T05:34:12.292Z,98928.59
2019-03-10T05:37:17.440Z,98926.34
2019-03-10T05:40:22.724Z,98921.80
2019-03-10T05:43:27.905Z,98917.82
2019-03-10T05:46:33.043Z,98909.64
2019-03-10T05:49:38.182Z,98914.39
2019-03-10T05:52:43.418Z,98908.91
2019-03-10T05:55:48.521Z,98904.19
2019-03-10T05:58:53.649Z,98897.11
2019-03-10T06:01:58.816Z,98895.95
2019-03-10T06:05:05.960Z,98887.29
2019-03-10T06:08:10.895Z,98883.30
2019-03-10T06:11:16.012Z,98882.84
2019-03-10T06:14:21.123Z,98871.50
2019-03-10T06:17:26.292Z,98861.57
2019-03-10T06:20:31.437Z,98841.81
2019-03-10T06:23:36.612Z,98832.00
2019-03-10T06:26:41.824Z,98829.41
2019-03-10T06:29:46.913Z,98825.83
2019-03-10T06:32:52.029Z,98814.91
2019-03-10T06:35:57.219Z,98806.34
2019-03-10T06:39:02.321Z,98799.72
2019-03-10T06:42:08.927Z,98803.41
2019-03-10T06:45:14.084Z,98791.95
2019-03-10T06:48:19.226Z,98779.26
2019-03-10T06:51:24.336Z,98770.70
2019-03-10T06:54:29.554Z,98762.45
2019-03-10T06:57:34.706Z,98747.55
2019-03-10T07:00:41.026Z,98735.03
2019-03-10T07:03:46.099Z,98717.64
2019-03-10T07:06:51.306Z,98714.97
2019-03-10T07:09:56.482Z,98707.36
2019-03-10T07:13:01.663Z,98696.80
2019-03-10T07:16:06.787Z,98694.19
2019-03-10T07:19:11.983Z,98682.94
2019-03-10T07:22:17.092Z,98683.97
2019-03-10T07:25:22.389Z,98667.37
2019-03-10T07:28:31.775Z,98661.48
2019-03-10T07:31:50.989Z,98664.98
2019-03-10T07:35:19.808Z,98658.02
2019-03-10T07:38:41.454Z,98651.84
2019-03-10T07:42:04.211Z,98633.97
2019-03-10T07:45:23.162Z,98638.36
2019-03-10T07:48:45.867Z,98617.11
2019-03-10T07:52:05.992Z,98618.45
2019-03-10T07:55:21.260Z,98620.54
2019-03-10T07:58:38.050Z,98607.38
2019-03-10T08:02:02.109Z,98594.77
2019-03-10T08:05:32.140Z,98590.69
2019-03-10T08:08:46.256Z,98580.61
2019-03-10T08:12:10.369Z,98585.91
2019-03-10T08:15:34.969Z,98577.80
2019-03-10T08:19:11.227Z,98570.42
2019-03-10T08:22:28.916Z,98569.95
2019-03-10T08:25:52.900Z,98571.16
2019-03-10T08:29:32.635Z,98555.62
2019-03-10T08:32:55.732Z,98550.41
2019-03-10T08:36:29.187Z,98547.78
2019-03-10T08:39:53.849Z,98537.84
2019-03-10T08:43:17.960Z,98524.09
2019-03-10T08:46:42.019Z,98515.41
2019-03-10T08:50:06.211Z,98514.41
2019-03-10T08:53:18.836Z,98515.71
2019-03-10T08:56:52.209Z,98488.75
2019-03-10T09:00:19.135Z,98473.80
2019-03-10T09:03:42.340Z,98472.89
2019-03-10T09:07:06.492Z,98466.95
2019-03-10T09:10:34.088Z,98471.55
2019-03-10T09:13:56.100Z,98467.95
2019-03-10T09:17:09.110Z,98460.13
2019-03-10T09:20:25.157Z,98452.38
2019-03-10T09:23:51.351Z,98432.88
2019-03-10T09:27:30.576Z,98433.94
2019-03-10T09:30:56.609Z,98439.49
2019-03-10T09:34:19.368Z,98436.30
2019-03-10T09:37:33.178Z,98414.34
2019-03-10T09:40:56.440Z,98424.30
2019-03-10T09:44:23.747Z,98422.77
2019-03-10T09:47:47.582Z,98403.00
2019-03-10T09:51:08.700Z,98396.34
2019-03-10T09:54:28.448Z,98389.34
2019-03-10T09:58:01.971Z,98398.63
2019-03-10T10:01:32.418Z,98395.50
2019-03-10T10:05:14.626Z,98371.67
2019-03-10T10:08:38.772Z,98365.70
2019-03-10T10:12:13.078Z,98351.61
2019-03-10T10:15:31.163Z,98354.05
2019-03-10T10:18:53.845Z,98343.21
2019-03-10T10:22:10.298Z,98338.30
2019-03-10T10:25:29.385Z,98328.03
2019-03-10T10:28:40.243Z,98328.59
2019-03-10T10:32:04.368Z,98328.85
2019-03-10T10:35:47.301Z,98311.00
2019-03-10T10:39:09.948Z,98304.50
2019-03-10T10:42:37.175Z,98318.80
2019-03-10T10:46:00.165Z,98270.96
2019-03-10T10:49:17.874Z,98275.56
2019-03-10T10:52:31.701Z,98289.59
2019-03-10T10:56:08.209Z,98302.56
2019-03-10T10:59:29.399Z,98301.98
2019-03-10T11:02:48.607Z,98310.60
2019-03-10T11:06:15.581Z,98299.98
2019-03-10T11:09:30.590Z,98314.22
2019-03-10T11:12:53.148Z,98279.56
2019-03-10T11:16:20.095Z,98292.73
2019-03-10T11:19:34.713Z,98309.34
2019-03-10T11:22:50.673Z,98274.42
2019-03-10T11:26:08.618Z,98285.77
2019-03-10T11:29:29.618Z,98312.78
2019-03-10T11:32:42.195Z,98309.38
2019-03-10T11:36:04.041Z,98307.47
2019-03-10T11:39:32.389Z,98282.01
2019-03-10T11:42:51.576Z,98294.09
2019-03-10T11:46:29.215Z,98313.50
2019-03-10T11:49:50.675Z,98295.88
2019-03-10T11:53:19.406Z,98304.41
2019-03-10T11:56:34.062Z,98304.28
2019-03-10T11:59:44.377Z,98267.34
2019-03-10T12:03:08.206Z,98254.09
2019-03-10T12:06:32.344Z,98242.48
2019-03-10T12:09:37.532Z,98252.23
2019-03-10T12:12:42.693Z,98240.87
2019-03-10T12:15:47.841Z,98225.14
2019-03-10T12:18:53.017Z,98228.14
2019-03-10T12:21:58.184Z,98228.69
2019-03-10T12:25:03.323Z,98227.05
2019-03-10T12:28:08.538Z,98247.08
2019-03-10T12:31:13.668Z,98246.01
2019-03-10T12:34:18.793Z,98248.73
2019-03-10T12:37:23.960Z,98243.31
2019-03-10T12:40:29.099Z,98267.38
2019-03-10T12:43:34.395Z,98253.02
2019-03-10T12:46:39.559Z,98266.49
2019-03-10T12:49:44.655Z,98274.31
2019-03-10T12:52:49.796Z,98262.63
2019-03-10T12:55:54.986Z,98259.73
2019-03-10T12:59:00.167Z,98272.20
2019-03-10T13:02:05.258Z,98258.71
2019-03-10T13:05:10.407Z,98272.27
2019-03-10T13:08:15.582Z,98273.88
2019-03-10T13:11:20.745Z,98249.80
2019-03-10T13:14:26.021Z,98244.04
2019-03-10T13:17:31.205Z,98258.23
2019-03-10T13:20:36.384Z,98248.89
2019-03-10T13:23:41.499Z,98249.28
2019-03-10T13:26:46.656Z,98260.36
2019-03-10T13:29:51.924Z,98272.27
2019-03-10T13:32:57.253Z,98284.97
2019-03-10T13:36:02.461Z,98251.95
2019-03-10T13:39:08.381Z,98249.79
2019-03-10T13:42:15.127Z,98235.97
2019-03-10T13:45:20.292Z,98250.88
2019-03-10T13:48:25.400Z,98245.99
2019-03-10T13:51:30.539Z,98249.24
2019-03-10T13:54:35.794Z,98250.60
2019-03-10T13:57:40.883Z,98253.05
2019-03-10T14:00:45.977Z,98254.14
2019-03-10T14:03:51.176Z,98241.16
2019-03-10T14:06:56.304Z,98250.22
2019-03-10T14:10:01.513Z,98245.25
2019-03-10T14:13:07.695Z,98250.66
2019-03-10T14:16:12.911Z,98260.18
2019-03-10T14:19:18.072Z,98258.92
2019-03-10T14:22:23.380Z,98252.95
2019-03-10T14:25:28.657Z,98288.98
2019-03-10T14:28:33.814Z,98273.74
2019-03-10T14:31:38.907Z,98260.66
2019-03-10T14:34:44.116Z,98288.61
2019-03-10T14:37:49.308Z,98296.39
2019-03-10T14:40:54.532Z,98315.45
2019-03-10T14:43:59.771Z,98296.22
2019-03-10T14:47:05.153Z,98310.88
2019-03-10T14:50:11.362Z,98328.70
2019-03-10T14:53:16.503Z,98351.54
2019-03-10T14:56:21.688Z,98328.28
2019-03-10T14:59:26.884Z,98368.91
2019-03-10T15:02:32.076Z,98358.34
2019-03-10T15:05:37.239Z,98375.44
2019-03-10T15:08:42.410Z,98391.15
2019-03-10T15:11:48.091Z,98393.26
2019-03-10T15:14:53.410Z,98403.61
2019-03-10T15:17:58.553Z,98418.52
2019-03-10T15:21:03.823Z,98383.83
2019-03-10T15:24:08.940Z,98410.41
2019-03-10T15:27:23.060Z,98429.91
2019-03-10T15:30:21.065Z,98462.68
2019-03-10T15:33:27.125Z,98422.31
2019-03-10T15:36:32.251Z,98452.38
2019-03-10T15:39:37.389Z,98473.73
2019-03-10T15:42:42.568Z,98439.87
2019-03-10T15:45:47.706Z,98480.80
2019-03-10T15:48:52.853Z,98472.67
2019-03-10T15:51:57.975Z,98488.08
2019-03-10T15:55:03.211Z,98481.33
2019-03-10T15:58:08.486Z,98500.78
2019-03-10T16:01:13.657Z,98486.66
2019-03-10T16:04:24.853Z,98548.86
2019-03-10T16:07:30.012Z,98524.70
2019-03-10T16:10:35.165Z,98531.44
2019-03-10T16:13:40.447Z,98540.11
2019-03-10T16:16:45.738Z,98559.19
2019-03-10T16:19:51.173Z,98593.19
2019-03-10T16:22:57.380Z,98595.62
2019-03-10T16:26:02.452Z,98589.55
2019-03-10T16:29:08.946Z,98589.77
2019-03-10T16:32:14.246Z,98591.89
2019-03-10T16:35:21.949Z,98615.52
2019-03-10T16:38:26.535Z,98623.06
2019-03-10T16:41:31.810Z,98646.39
2019-03-10T16:44:37.122Z,98649.94
2019-03-10T16:47:42.246Z,98639.41
2019-03-10T16:50:47.413Z,98656.00
2019-03-10T16:53:52.595Z,98683.77
2019-03-10T16:56:58.828Z,98656.75
2019-03-10T17:00:04.086Z,98705.23
2019-03-10T17:03:10.402Z,98667.26
2019-03-10T17:06:15.584Z,98669.58
2019-03-10T17:09:21.160Z,98731.45
2019-03-10T17:12:26.378Z,98721.72
2019-03-10T17:15:31.510Z,98725.16
2019-03-10T17:18:36.749Z,98738.80
2019-03-10T17:21:42.259Z,98752.09
2019-03-10T17:24:47.423Z,98750.30
2019-03-10T17:27:52.641Z,98774.77
2019-03-10T17:30:57.786Z,98785.75
2019-03-10T17:34:03.124Z,98793.74
2019-03-10T17:37:08.310Z,98791.73
2019-03-10T17:40:15.666Z,98799.95
2019-03-10T17:43:20.820Z,98798.42
2019-03-10T17:46:25.991Z,98802.92
2019-03-10T17:49:31.089Z,98834.56
2019-03-10T17:52:36.260Z,98834.09
2019-03-10T17:55:41.418Z,98829.26
2019-03-10T17:58:46.636Z,98844.58
2019-03-10T18:01:51.776Z,98863.56
2019-03-10T18:04:56.930Z,98863.08
2019-03-10T18:08:03.177Z,98887.03
2019-03-10T18:11:08.405Z,98861.38
2019-03-10T18:14:13.668Z,98887.25
2019-03-10T18:17:18.948Z,98907.48
2019-03-10T18:20:24.115Z,98903.97
2019-03-10T18:23:29.258Z,98907.15
2019-03-10T18:26:34.432Z,98929.43
2019-03-10T18:29:39.609Z,98948.61
2019-03-10T18:32:44.781Z,98991.69
2019-03-10T18:35:49.891Z,99045.36
2019-03-10T18:38:55.142Z,99072.59
2019-03-10T18:42:00.366Z,99093.74
2019-03-10T18:45:06.222Z,99111.91
2019-03-10T18:48:11.419Z,99131.20
2019-03-10T18:51:16.597Z,99133.89
2019-03-10T18:54:21.770Z,99163.66
2019-03-10T18:57:26.953Z,99147.98
2019-03-10T19:00:32.190Z,99163.34
2019-03-10T19:03:37.437Z,99178.76
2019-03-10T19:06:42.723Z,99168.58
2019-03-10T19:09:47.838Z,99184.98
2019-03-10T19:12:52.988Z,99188.70
2019-03-10T19:15:58.196Z,99187.48
2019-03-10T19:19:03.370Z,99182.55
2019-03-10T19:22:08.523Z,99206.69
2019-03-10T19:25:14.094Z,99192.13
2019-03-10T19:28:19.309Z,99186.08
2019-03-10T19:31:24.471Z,99203.64
2019-03-10T19:34:29.627Z,99215.87
2019-03-10T19:37:34.705Z,99222.09
2019-03-10T19:40:39.823Z,99225.41
2019-03-10T19:43:45.020Z,99238.25
2019-03-10T19:46:50.198Z,99240.95
2019-03-10T19:49:56.420Z,99249.25
2019-03-10T19:53:01.578Z,99240.92
2019-03-10T19:56:06.819Z,99258.08
2019-03-10T19:59:11.974Z,99262.86
2019-03-10T20:02:17.228Z,99259.78
2019-03-10T20:05:22.423Z,99262.33
2019-03-10T20:08:27.613Z,99277.05
2019-03-10T20:11:32.842Z,99289.78
2019-03-10T20:14:38.040Z,99292.13
2019-03-10T20:17:43.226Z,99306.59
2019-03-10T20:20:48.465Z,99317.95
2019-03-10T20:23:53.694Z,99328.96
2019-03-10T20:26:58.873Z,99335.48
2019-03-10T20:30:04.625Z,99344.08
2019-03-10T20:33:10.609Z,99351.55
2019-03-10T20:36:15.731Z,99362.49
2019-03-10T20:39:20.902Z,99365.45
2019-03-10T20:42:26.066Z,99379.61
2019-03-10T20:45:31.266Z,99377.34
2019-03-10T20:48:36.449Z,99377.69
2019-03-10T20:51:41.671Z,99383.68
2019-03-10T20:54:46.804Z,99374.31
2019-03-10T20:57:51.918Z,99391.33
2019-03-10T21:00:57.067Z,99386.08
2019-03-10T21:04:02.482Z,99393.23
2019-03-10T21:07:10.121Z,99400.52
2019-03-10T21:10:15.378Z,99416.63
2019-03-10T21:13:20.526Z,99413.30
2019-03-10T21:16:25.713Z,99430.61
2019-03-10T21:19:30.857Z,99427.77
2019-03-10T21:22:36.008Z,99427.53
2019-03-10T21:25:41.223Z,99441.32
2019-03-10T21:28:46.401Z,99460.28
2019-03-10T21:31:51.604Z,99464.39
2019-03-10T21:34:56.831Z,99464.75
2019-03-10T21:38:01.947Z,99470.93
2019-03-10T21:41:13.981Z,99483.42
2019-03-10T21:44:13.979Z,99490.56
2019-03-10T21:47:19.170Z,99488.64
2019-03-10T21:50:24.348Z,99486.35
2019-03-10T21:53:29.535Z,99509.88
2019-03-10T21:56:34.724Z,99507.67
2019-03-10T21:59:39.893Z,99505.48
2019-03-10T22:02:44.988Z,99527.59
2019-03-10T22:05:50.158Z,99530.53
2019-03-10T22:08:55.395Z,99534.56
2019-03-10T22:12:00.653Z,99553.86
2019-03-10T22:15:06.737Z,99548.77
2019-03-10T22:18:13.490Z,99550.75
2019-03-10T22:21:18.691Z,99552.48
2019-03-10T22:24:23.793Z,99572.92
2019-03-10T22:27:29.027Z,99582.80
2019-03-10T22:30:34.221Z,99590.14
2019-03-10T22:33:39.514Z,99587.60
2019-03-10T22:36:44.705Z,99589.80
2019-03-10T22:39:49.942Z,99584.08
2019-03-10T22:42:55.194Z,99580.71
2019-03-10T22:46:00.441Z,99575.74
2019-03-10T22:49:05.620Z,99594.17
2019-03-10T22:52:10.781Z,99580.87
2019-03-10T22:55:15.859Z,99598.83
2019-03-10T22:58:21.161Z,99619.13
2019-03-10T23:01:26.364Z,99631.61
2019-03-10T23:04:31.586Z,99653.19
2019-03-10T23:07:36.738Z,99656.24
2019-03-10T23:10:42.878Z,99651.72
2019-03-10T23:13:47.986Z,99654.06
2019-03-10T23:16:53.127Z,99664.45
2019-03-10T23:19:58.227Z,99688.34
2019-03-10T23:23:03.346Z,99698.55
2019-03-10T23:26:08.440Z,99725.97
2019-03-10T23:29:13.696Z,99726.85
2019-03-10T23:32:18.764Z,99717.77
2019-03-10T23:35:23.992Z,99701.14
2019-03-10T23:38:29.240Z,99699.07
2019-03-10T23:41:34.373Z,99709.17
2019-03-10T23:44:39.505Z,99714.19
2019-03-10T23:47:44.739Z,99714.02
2019-03-10T23:50:49.859Z,99696.16
2019-03-10T23:53:54.938Z,99694.48
2019-03-10T23:57:00.042Z,99689.53
